Time;durP1;ratioP1;P1;durP2;ratioP2;P2;SDS_P1;SDS_P2;PMS_P1;PMS_P2;Temp;Humidity;BMP_temperature;BMP_pressure;BME280_temperature;BME280_humidity;BME280_pressure;Samples;Min_cycle;Max_cycle;Signal;HPM_P1;HPM_P2
2021/12/15 00:01:20;;;;;;;23.70;12.30;;;;;;;;;;5073825;28;20955;-72
2021/12/15 00:03:47;;;;;;;29.50;13.20;;;;;;;;;;5073749;28;20452;-72
2021/12/15 00:06:18;;;;;;;24.90;13.67;;;;;;;;;;5074185;28;20498;-72
2021/12/15 00:08:46;;;;;;;26.20;14.47;;;;;;;;;;5073990;28;20452;-72
2021/12/15 00:11:14;;;;;;;27.30;13.53;;;;;;;;;;5074042;28;20835;-72
2021/12/15 00:13:42;;;;;;;27.43;14.40;;;;;;;;;;5073698;28;20451;-72
2021/12/15 00:16:10;;;;;;;27.00;13.23;;;;;;;;;;5073780;28;20454;-72
2021/12/15 00:18:41;;;;;;;27.37;13.97;;;;;;;;;;5073686;28;20462;-72
2021/12/15 00:21:09;;;;;;;26.70;12.83;;;;;;;;;;5073988;28;20462;-72
2021/12/15 00:23:36;;;;;;;27.83;13.90;;;;;;;;;;5073413;28;20470;-72
2021/12/15 00:26:04;;;;;;;30.63;14.13;;;;;;;;;;5073543;28;20486;-72
2021/12/15 00:28:31;;;;;;;31.17;15.47;;;;;;;;;;5073634;28;20447;-72
2021/12/15 00:30:58;;;;;;;29.33;13.23;;;;;;;;;;5073449;28;20462;-72
2021/12/15 00:33:26;;;;;;;28.27;14.03;;;;;;;;;;5073445;28;20967;-72
2021/12/15 00:35:55;;;;;;;26.50;13.23;;;;;;;;;;5073723;28;20454;-72
2021/12/15 00:38:23;;;;;;;29.73;14.80;;;;;;;;;;5073456;28;20953;-72
2021/12/15 00:40:50;;;;;;;28.93;15.43;;;;;;;;;;5073559;28;20471;-72
2021/12/15 00:43:17;;;;;;;26.97;14.30;;;;;;;;;;5073252;28;20451;-72
2021/12/15 00:45:45;;;;;;;28.03;14.70;;;;;;;;;;5073079;28;20877;-72
2021/12/15 00:48:12;;;;;;;26.80;14.60;;;;;;;;;;5073192;28;20456;-72
2021/12/15 00:50:39;;;;;;;32.90;16.33;;;;;;;;;;5073316;28;20468;-72
2021/12/15 00:53:08;;;;;;;31.07;14.03;;;;;;;;;;5073333;28;20955;-72
2021/12/15 00:55:36;;;;;;;25.80;12.97;;;;;;;;;;5073028;28;20447;-72
2021/12/15 00:58:04;;;;;;;28.30;14.60;;;;;;;;;;5073187;28;20462;-72
2021/12/15 01:00:33;;;;;;;24.10;14.37;;;;;;;;;;5073248;28;20448;-72
2021/12/15 01:03:01;;;;;;;34.90;16.20;;;;;;;;;;5073249;28;20458;-72
2021/12/15 01:05:30;;;;;;;29.87;13.60;;;;;;;;;;5072814;28;20840;-72
2021/12/15 01:07:57;;;;;;;25.67;14.20;;;;;;;;;;5073211;28;20451;-72
2021/12/15 01:10:33;;;;;;;28.60;14.40;;;;;;;;;;5072693;28;20448;-72
2021/12/15 01:21:16;;;;;;;22.87;12.57;;;;;;;;;;5072858;28;20419;-72
2021/12/15 01:23:44;;;;;;;30.17;13.50;;;;;;;;;;5072640;28;20455;-72
2021/12/15 01:26:13;;;;;;;33.33;15.27;;;;;;;;;;5072967;28;20494;-72
2021/12/15 01:28:40;;;;;;;35.33;15.17;;;;;;;;;;5072861;28;20960;-72
2021/12/15 01:31:09;;;;;;;29.40;14.50;;;;;;;;;;5072835;28;20937;-72
2021/12/15 01:33:36;;;;;;;31.10;14.80;;;;;;;;;;5072728;28;20818;-72
2021/12/15 01:36:05;;;;;;;31.40;17.67;;;;;;;;;;5073089;28;20455;-72
2021/12/15 01:38:33;;;;;;;28.77;15.37;;;;;;;;;;5072737;28;20822;-72
2021/12/15 01:41:00;;;;;;;28.10;13.20;;;;;;;;;;5072933;28;20447;-72
2021/12/15 01:43:38;;;;;;;26.73;14.17;;;;;;;;;;5072499;28;20937;-73
2021/12/15 01:48:58;;;;;;;41.00;17.00;;;;;;;;;;5072765;28;20432;-72
2021/12/15 01:51:25;;;;;;;26.57;14.43;;;;;;;;;;5072762;28;20806;-72
2021/12/15 01:53:52;;;;;;;29.83;16.37;;;;;;;;;;5072532;28;20443;-72
2021/12/15 01:56:19;;;;;;;33.60;16.13;;;;;;;;;;5072714;28;20444;-72
2021/12/15 01:58:48;;;;;;;36.33;16.53;;;;;;;;;;5072862;28;20940;-72
2021/12/15 02:01:15;;;;;;;36.70;18.90;;;;;;;;;;5072100;28;20455;-72
2021/12/15 02:03:42;;;;;;;32.27;18.37;;;;;;;;;;5072636;28;20455;-72
2021/12/15 02:06:10;;;;;;;35.10;17.20;;;;;;;;;;5072461;28;20937;-72
2021/12/15 02:08:38;;;;;;;38.37;17.60;;;;;;;;;;5072444;28;20464;-72
2021/12/15 02:11:06;;;;;;;34.90;16.30;;;;;;;;;;5072644;28;20444;-72
2021/12/15 02:13:33;;;;;;;38.00;17.90;;;;;;;;;;5072340;28;20627;-72
2021/12/15 02:16:02;;;;;;;35.63;18.03;;;;;;;;;;5072413;28;20940;-72
2021/12/15 02:18:32;;;;;;;33.83;17.70;;;;;;;;;;5072244;28;20454;-72
2021/12/15 02:21:02;;;;;;;41.00;18.17;;;;;;;;;;5072439;28;20458;-72
2021/12/15 02:23:34;;;;;;;38.13;17.50;;;;;;;;;;5073608;28;20458;-72
2021/12/15 02:26:02;;;;;;;32.33;16.90;;;;;;;;;;5075904;28;21000;-71
2021/12/15 02:28:30;;;;;;;37.20;17.27;;;;;;;;;;5075856;28;20936;-71
2021/12/15 02:31:05;;;;;;;41.27;20.00;;;;;;;;;;5075840;28;20443;-71
2021/12/15 02:33:47;;;;;;;32.57;16.37;;;;;;;;;;5075532;28;20592;-72
2021/12/15 02:39:04;;;;;;;29.80;15.70;;;;;;;;;;5075642;28;20443;-71
2021/12/15 02:41:31;;;;;;;30.10;14.57;;;;;;;;;;5075517;28;20555;-71
2021/12/15 02:44:00;;;;;;;30.60;14.30;;;;;;;;;;5075500;28;20546;-72
2021/12/15 02:46:29;;;;;;;28.70;14.13;;;;;;;;;;5075501;28;20483;-72
2021/12/15 02:48:56;;;;;;;35.10;15.40;;;;;;;;;;5075683;28;20451;-72
2021/12/15 02:51:25;;;;;;;31.80;15.33;;;;;;;;;;5075734;28;20479;-71
2021/12/15 02:53:53;;;;;;;36.60;17.30;;;;;;;;;;5075321;28;20461;-72
2021/12/15 02:56:20;;;;;;;31.30;15.10;;;;;;;;;;5075735;28;20455;-71
2021/12/15 02:58:52;;;;;;;41.30;15.03;;;;;;;;;;5075571;28;20451;-71
2021/12/15 03:01:29;;;;;;;36.53;16.70;;;;;;;;;;5075238;28;20443;-72
2021/12/15 03:04:14;;;;;;;28.30;15.87;;;;;;;;;;5075385;28;20455;-72
2021/12/15 03:06:51;;;;;;;34.97;15.87;;;;;;;;;;5075275;28;20855;-71
2021/12/15 03:17:29;;;;;;;37.23;17.27;;;;;;;;;;5074950;28;20423;-71
2021/12/15 03:19:56;;;;;;;33.80;15.70;;;;;;;;;;5075084;28;20814;-71
2021/12/15 03:22:24;;;;;;;34.07;16.63;;;;;;;;;;5075024;28;20451;-71
2021/12/15 03:24:52;;;;;;;37.60;17.73;;;;;;;;;;5074451;28;20439;-72
2021/12/15 03:27:25;;;;;;;38.47;17.53;;;;;;;;;;5074663;28;20498;-72
2021/12/15 03:35:34;;;;;;;28.63;15.00;;;;;;;;;;5074119;28;20919;-71
2021/12/15 03:38:03;;;;;;;29.27;14.87;;;;;;;;;;5074687;28;20509;-71
2021/12/15 03:40:36;;;;;;;34.40;15.83;;;;;;;;;;5074505;28;20452;-72
2021/12/15 03:43:05;;;;;;;33.77;16.20;;;;;;;;;;5074460;28;20517;-71
2021/12/15 03:45:34;;;;;;;28.77;15.17;;;;;;;;;;5073958;28;20459;-71
2021/12/15 03:48:02;;;;;;;34.80;18.10;;;;;;;;;;5074493;28;20807;-71
2021/12/15 03:50:30;;;;;;;37.47;16.30;;;;;;;;;;5074327;28;20451;-71
2021/12/15 03:52:57;;;;;;;31.67;16.13;;;;;;;;;;5074405;28;20458;-71
2021/12/15 03:55:28;;;;;;;41.13;17.33;;;;;;;;;;5073783;28;20447;-72
2021/12/15 03:57:55;;;;;;;31.30;15.67;;;;;;;;;;5074084;28;20483;-71
2021/12/15 04:00:23;;;;;;;35.27;15.43;;;;;;;;;;5074173;28;20828;-72
2021/12/15 04:02:51;;;;;;;38.10;16.13;;;;;;;;;;5074217;28;20446;-71
2021/12/15 04:05:19;;;;;;;32.27;15.90;;;;;;;;;;5073826;28;20492;-71
2021/12/15 04:07:46;;;;;;;38.40;17.37;;;;;;;;;;5073879;28;20487;-71
2021/12/15 04:10:15;;;;;;;36.17;16.60;;;;;;;;;;5074227;28;20463;-71
2021/12/15 04:12:43;;;;;;;39.97;18.73;;;;;;;;;;5073929;28;20451;-71
2021/12/15 04:15:25;;;;;;;46.23;18.00;;;;;;;;;;5073656;28;20474;-71
2021/12/15 04:17:53;;;;;;;31.00;16.80;;;;;;;;;;5073914;28;20459;-71
2021/12/15 04:20:21;;;;;;;42.53;18.20;;;;;;;;;;5073900;28;20458;-71
2021/12/15 04:22:49;;;;;;;31.50;15.03;;;;;;;;;;5073848;28;20452;-71
2021/12/15 04:25:18;;;;;;;36.13;16.03;;;;;;;;;;5073502;28;20809;-72
2021/12/15 04:27:53;;;;;;;28.07;13.77;;;;;;;;;;5073764;28;20987;-72
2021/12/15 04:30:20;;;;;;;35.27;16.10;;;;;;;;;;5073648;28;20790;-71
2021/12/15 04:32:48;;;;;;;29.03;16.50;;;;;;;;;;5073574;28;20443;-71
2021/12/15 04:35:17;;;;;;;29.47;16.60;;;;;;;;;;5073267;28;20455;-72
2021/12/15 04:37:45;;;;;;;33.03;15.80;;;;;;;;;;5073786;28;20815;-71
2021/12/15 04:40:13;;;;;;;36.43;19.10;;;;;;;;;;5073526;28;20447;-72
2021/12/15 04:42:43;;;;;;;37.53;16.00;;;;;;;;;;5073431;28;20941;-71
2021/12/15 04:45:14;;;;;;;35.83;16.20;;;;;;;;;;5072684;28;20470;-71
2021/12/15 04:47:41;;;;;;;26.97;14.20;;;;;;;;;;5073023;28;20487;-71
2021/12/15 04:50:10;;;;;;;30.17;14.83;;;;;;;;;;5073599;28;20466;-71
2021/12/15 04:52:37;;;;;;;36.87;16.60;;;;;;;;;;5073268;28;20448;-71
2021/12/15 04:55:06;;;;;;;30.63;14.57;;;;;;;;;;5073106;28;20795;-72
2021/12/15 04:57:33;;;;;;;33.73;18.47;;;;;;;;;;5073089;28;20908;-72
2021/12/15 05:00:01;;;;;;;28.93;15.07;;;;;;;;;;5073221;28;20451;-71
2021/12/15 05:02:29;;;;;;;29.83;15.20;;;;;;;;;;5073138;28;20472;-71
2021/12/15 05:04:58;;;;;;;32.37;16.20;;;;;;;;;;5073181;28;20547;-72
2021/12/15 05:07:25;;;;;;;34.57;17.90;;;;;;;;;;5073005;28;20935;-72
2021/12/15 05:09:53;;;;;;;39.00;17.27;;;;;;;;;;5073250;28;20447;-72
2021/12/15 05:12:21;;;;;;;40.10;16.90;;;;;;;;;;5073045;28;20482;-71
2021/12/15 05:14:49;;;;;;;34.07;17.50;;;;;;;;;;5072907;28;20459;-71
2021/12/15 05:17:16;;;;;;;32.90;16.20;;;;;;;;;;5072867;28;20455;-72
2021/12/15 05:19:46;;;;;;;31.00;15.10;;;;;;;;;;5072913;28;20447;-71
2021/12/15 05:22:14;;;;;;;37.37;16.53;;;;;;;;;;5072921;28;20550;-71
2021/12/15 05:24:42;;;;;;;37.27;16.33;;;;;;;;;;5072778;28;20900;-71
2021/12/15 05:27:11;;;;;;;35.27;14.20;;;;;;;;;;5072926;28;20484;-71
2021/12/15 05:29:39;;;;;;;39.07;14.70;;;;;;;;;;5072872;28;20799;-71
2021/12/15 05:32:08;;;;;;;30.93;16.23;;;;;;;;;;5072824;28;20452;-71
2021/12/15 05:34:36;;;;;;;34.20;16.27;;;;;;;;;;5072575;28;20456;-71
2021/12/15 05:37:04;;;;;;;46.13;16.13;;;;;;;;;;5073002;28;20448;-71
2021/12/15 05:39:32;;;;;;;40.20;17.53;;;;;;;;;;5072794;28;20454;-71
2021/12/15 05:42:00;;;;;;;32.63;16.70;;;;;;;;;;5072834;28;20940;-71
2021/12/15 05:44:27;;;;;;;40.80;17.07;;;;;;;;;;5072431;28;20952;-71
2021/12/15 05:46:55;;;;;;;44.10;20.37;;;;;;;;;;5072405;28;20491;-71
2021/12/15 05:49:22;;;;;;;45.17;17.80;;;;;;;;;;5072436;28;20455;-71
2021/12/15 05:51:49;;;;;;;39.07;19.27;;;;;;;;;;5072678;28;20948;-71
2021/12/15 05:54:17;;;;;;;35.10;16.53;;;;;;;;;;5072447;28;20442;-71
2021/12/15 05:56:45;;;;;;;47.00;20.20;;;;;;;;;;5072979;28;20454;-71
2021/12/15 05:59:13;;;;;;;47.83;20.63;;;;;;;;;;5076441;28;20948;-71
2021/12/15 06:01:40;;;;;;;48.03;20.77;;;;;;;;;;5076516;28;20812;-71
2021/12/15 06:04:07;;;;;;;40.43;18.10;;;;;;;;;;5076137;28;20459;-71
2021/12/15 06:06:35;;;;;;;41.10;19.80;;;;;;;;;;5076258;28;20491;-71
2021/12/15 06:09:02;;;;;;;36.57;17.33;;;;;;;;;;5076339;28;20450;-71
2021/12/15 06:11:29;;;;;;;43.30;19.20;;;;;;;;;;5075919;28;20638;-71
2021/12/15 06:13:58;;;;;;;39.70;18.47;;;;;;;;;;5075943;28;20451;-71
2021/12/15 06:16:25;;;;;;;40.13;20.23;;;;;;;;;;5076307;28;20448;-71
2021/12/15 06:18:53;;;;;;;36.10;18.73;;;;;;;;;;5075902;28;20454;-71
2021/12/15 06:21:21;;;;;;;40.83;18.70;;;;;;;;;;5075946;28;20460;-71
2021/12/15 06:23:48;;;;;;;42.47;19.40;;;;;;;;;;5075783;28;20459;-71
2021/12/15 06:26:16;;;;;;;40.00;18.87;;;;;;;;;;5075710;28;21002;-71
2021/12/15 06:28:43;;;;;;;32.63;18.30;;;;;;;;;;5075884;28;20444;-71
2021/12/15 06:31:13;;;;;;;42.23;19.70;;;;;;;;;;5075897;28;20452;-71
2021/12/15 06:33:40;;;;;;;34.97;16.17;;;;;;;;;;5075565;28;20492;-71
2021/12/15 06:36:08;;;;;;;45.40;19.73;;;;;;;;;;5075775;28;20954;-71
2021/12/15 06:38:37;;;;;;;36.67;18.17;;;;;;;;;;5075569;28;20932;-71
2021/12/15 06:41:05;;;;;;;37.73;18.23;;;;;;;;;;5075754;28;20443;-71
2021/12/15 06:43:32;;;;;;;35.30;18.13;;;;;;;;;;5075384;28;20543;-71
2021/12/15 06:46:16;;;;;;;42.20;19.53;;;;;;;;;;5075761;28;20817;-71
2021/12/15 06:57:32;;;;;;;61.77;26.67;;;;;;;;;;5068225;28;21003;-71
2021/12/15 06:59:59;;;;;;;61.23;29.83;;;;;;;;;;5075394;28;20825;-71
2021/12/15 07:02:27;;;;;;;54.67;24.07;;;;;;;;;;5075173;28;20455;-71
2021/12/15 07:04:55;;;;;;;47.80;21.43;;;;;;;;;;5074950;28;20456;-71
2021/12/15 07:07:22;;;;;;;61.07;26.10;;;;;;;;;;5075063;28;20491;-71
2021/12/15 07:09:50;;;;;;;62.17;26.60;;;;;;;;;;5074398;28;20444;-71
2021/12/15 07:12:17;;;;;;;45.07;20.90;;;;;;;;;;5075055;28;20496;-71
2021/12/15 07:14:44;;;;;;;37.37;17.50;;;;;;;;;;5073163;28;20450;-71
2021/12/15 07:17:19;;;;;;;54.37;22.83;;;;;;;;;;5094033;28;20447;-71
2021/12/15 07:20:05;;;;;;;34.63;17.37;;;;;;;;;;5093863;28;20888;-71
2021/12/15 07:22:43;;;;;;;53.50;22.83;;;;;;;;;;5093746;28;20454;-71
2021/12/15 07:25:11;;;;;;;37.87;19.20;;;;;;;;;;5093274;28;20442;-71
2021/12/15 07:27:38;;;;;;;38.90;19.13;;;;;;;;;;5093757;28;20833;-71
2021/12/15 07:30:06;;;;;;;52.77;23.40;;;;;;;;;;5093637;28;20658;-71
2021/12/15 07:32:34;;;;;;;38.30;17.90;;;;;;;;;;5093221;28;20474;-71
2021/12/15 07:35:01;;;;;;;49.67;19.13;;;;;;;;;;5093595;28;20814;-71
2021/12/15 07:37:28;;;;;;;37.80;17.57;;;;;;;;;;5093300;28;20457;-71
2021/12/15 07:39:58;;;;;;;34.40;16.07;;;;;;;;;;5093483;28;20457;-71
2021/12/15 07:42:33;;;;;;;35.77;16.17;;;;;;;;;;5093689;28;20784;-71
2021/12/15 07:45:00;;;;;;;36.80;15.93;;;;;;;;;;5093115;28;20512;-71
2021/12/15 07:47:28;;;;;;;41.97;18.30;;;;;;;;;;5092848;28;20533;-71
2021/12/15 07:50:00;;;;;;;36.10;17.30;;;;;;;;;;5093420;28;20458;-71
2021/12/15 07:52:28;;;;;;;33.00;17.40;;;;;;;;;;5092850;28;20441;-71
2021/12/15 07:54:56;;;;;;;37.17;16.40;;;;;;;;;;5093229;28;20817;-71
2021/12/15 07:57:28;;;;;;;34.70;16.10;;;;;;;;;;5092905;28;20940;-71
2021/12/15 07:59:57;;;;;;;31.10;14.90;;;;;;;;;;5093145;28;20447;-71
2021/12/15 08:02:24;;;;;;;31.67;13.67;;;;;;;;;;5093093;28;20824;-71
2021/12/15 08:04:51;;;;;;;33.40;14.83;;;;;;;;;;5092950;28;20959;-71
2021/12/15 08:07:18;;;;;;;33.83;14.90;;;;;;;;;;5092494;28;20490;-71
2021/12/15 08:09:45;;;;;;;31.50;17.17;;;;;;;;;;5093111;28;20435;-71
2021/12/15 08:12:14;;;;;;;30.17;13.70;;;;;;;;;;5092808;28;20553;-71
2021/12/15 08:14:41;;;;;;;31.00;15.03;;;;;;;;;;5092356;28;20458;-71
2021/12/15 08:17:08;;;;;;;31.60;14.00;;;;;;;;;;5093024;28;20954;-71
2021/12/15 08:19:35;;;;;;;36.27;13.27;;;;;;;;;;5092291;28;20461;-71
2021/12/15 08:22:03;;;;;;;29.43;13.10;;;;;;;;;;5092963;28;20455;-71
2021/12/15 08:24:30;;;;;;;36.37;15.60;;;;;;;;;;5092834;28;20461;-71
2021/12/15 08:26:57;;;;;;;29.50;13.33;;;;;;;;;;5092628;28;20459;-71
2021/12/15 08:29:25;;;;;;;28.27;13.60;;;;;;;;;;5092099;28;20451;-71
2021/12/15 08:31:52;;;;;;;38.87;15.20;;;;;;;;;;5092452;28;20462;-71
2021/12/15 08:34:19;;;;;;;24.20;13.40;;;;;;;;;;5092877;28;20477;-71
2021/12/15 08:36:49;;;;;;;32.17;16.00;;;;;;;;;;5092090;28;20451;-71
2021/12/15 08:39:16;;;;;;;54.73;25.53;;;;;;;;;;5092258;28;20458;-71
2021/12/15 08:41:44;;;;;;;28.13;14.77;;;;;;;;;;5092256;28;20458;-71
2021/12/15 08:44:11;;;;;;;28.30;13.70;;;;;;;;;;5092151;28;20457;-71
2021/12/15 08:46:41;;;;;;;25.13;13.30;;;;;;;;;;5091999;28;20467;-71
2021/12/15 08:49:10;;;;;;;34.13;14.40;;;;;;;;;;5092121;28;20594;-71
2021/12/15 08:51:37;;;;;;;28.57;14.00;;;;;;;;;;5091891;28;20985;-71
2021/12/15 08:54:06;;;;;;;26.37;14.47;;;;;;;;;;5092086;28;20451;-71
2021/12/15 08:56:33;;;;;;;33.07;15.73;;;;;;;;;;5092013;28;20451;-71
2021/12/15 08:59:01;;;;;;;29.87;14.30;;;;;;;;;;5090141;28;20806;-71
2021/12/15 09:01:28;;;;;;;30.70;13.67;;;;;;;;;;5091715;28;20455;-71
2021/12/15 09:03:57;;;;;;;26.17;12.00;;;;;;;;;;5091762;28;20804;-71
2021/12/15 09:06:24;;;;;;;34.97;13.47;;;;;;;;;;5091629;28;20458;-72
2021/12/15 09:08:52;;;;;;;31.97;14.00;;;;;;;;;;5092067;28;20509;-71
2021/12/15 09:11:21;;;;;;;29.20;14.50;;;;;;;;;;5091564;28;20794;-71
2021/12/15 09:13:52;;;;;;;23.33;11.57;;;;;;;;;;5091552;28;20458;-71
2021/12/15 09:16:19;;;;;;;26.13;13.00;;;;;;;;;;5091762;28;20544;-71
2021/12/15 09:18:47;;;;;;;28.50;12.47;;;;;;;;;;5091595;28;20451;-71
2021/12/15 09:21:21;;;;;;;27.10;13.37;;;;;;;;;;5091559;28;20447;-71
2021/12/15 09:23:48;;;;;;;31.23;15.07;;;;;;;;;;5078970;28;20468;-71
2021/12/15 09:26:15;;;;;;;78.40;42.90;;;;;;;;;;5071612;28;20459;-71
2021/12/15 09:28:43;;;;;;;33.70;15.60;;;;;;;;;;5071008;28;20494;-71
2021/12/15 09:31:11;;;;;;;27.33;13.30;;;;;;;;;;5071362;28;20467;-71
2021/12/15 09:33:41;;;;;;;25.87;12.33;;;;;;;;;;5074971;28;20455;-71
2021/12/15 09:36:10;;;;;;;38.13;15.13;;;;;;;;;;5075493;28;20474;-71
2021/12/15 09:38:38;;;;;;;20.60;12.70;;;;;;;;;;5075400;28;20795;-71
2021/12/15 09:41:06;;;;;;;30.00;15.87;;;;;;;;;;5075506;28;20455;-71
2021/12/15 09:43:35;;;;;;;24.20;12.87;;;;;;;;;;5075016;28;20932;-71
2021/12/15 09:46:06;;;;;;;26.00;14.30;;;;;;;;;;5075234;28;20960;-71
2021/12/15 09:57:12;;;;;;;28.40;14.87;;;;;;;;;;5075186;28;20407;-71
2021/12/15 10:02:34;;;;;;;27.87;14.13;;;;;;;;;;5074819;28;20797;-71
2021/12/15 10:05:12;;;;;;;29.20;13.33;;;;;;;;;;5074597;28;20893;-71
2021/12/15 10:10:46;;;;;;;30.07;13.97;;;;;;;;;;5042167;28;20459;-72
2021/12/15 10:18:49;;;;;;;39.17;27.50;;;;;;;;;;5074736;28;20435;-71
2021/12/15 10:21:21;;;;;;;60.83;28.37;;;;;;;;;;5074556;28;20454;-71
2021/12/15 10:23:50;;;;;;;24.27;12.77;;;;;;;;;;5074767;28;20813;-72
2021/12/15 10:26:19;;;;;;;35.57;20.93;;;;;;;;;;5074734;28;20498;-71
2021/12/15 10:28:49;;;;;;;23.67;15.07;;;;;;;;;;5074159;28;21012;-71
2021/12/15 10:31:17;;;;;;;28.07;16.00;;;;;;;;;;5074898;28;20825;-71
2021/12/15 10:33:46;;;;;;;24.87;12.83;;;;;;;;;;5074498;28;20455;-71
2021/12/15 10:36:15;;;;;;;20.77;10.80;;;;;;;;;;5074312;28;20459;-71
2021/12/15 10:38:45;;;;;;;13.57;7.33;;;;;;;;;;5074355;28;20447;-72
2021/12/15 10:41:13;;;;;;;17.70;9.23;;;;;;;;;;5074707;28;20818;-71
2021/12/15 10:43:43;;;;;;;13.90;7.70;;;;;;;;;;5072932;28;20452;-71
2021/12/15 10:46:12;;;;;;;11.77;7.07;;;;;;;;;;5074200;28;20479;-73
2021/12/15 10:48:46;;;;;;;13.10;7.47;;;;;;;;;;5091287;28;20837;-72
2021/12/15 10:51:27;;;;;;;9.93;6.17;;;;;;;;;;5093593;28;20453;-72
2021/12/15 10:53:55;;;;;;;10.27;6.73;;;;;;;;;;5093165;28;20458;-72
2021/12/15 10:56:24;;;;;;;14.50;7.50;;;;;;;;;;5078011;28;20460;-72
2021/12/15 10:58:53;;;;;;;13.00;7.80;;;;;;;;;;5075311;28;20455;-72
2021/12/15 11:01:34;;;;;;;16.93;7.10;;;;;;;;;;5075511;28;20475;-72
2021/12/15 11:04:02;;;;;;;15.20;7.80;;;;;;;;;;5075345;28;20444;-71
2021/12/15 11:06:33;;;;;;;12.23;7.60;;;;;;;;;;5075358;28;20447;-71
2021/12/15 11:09:17;;;;;;;16.60;9.27;;;;;;;;;;5075314;28;21010;-72
2021/12/15 11:11:57;;;;;;;13.90;8.23;;;;;;;;;;5075154;28;20448;-72
2021/12/15 11:14:29;;;;;;;18.73;10.00;;;;;;;;;;5075409;28;20821;-72
2021/12/15 11:17:03;;;;;;;14.17;8.50;;;;;;;;;;5075274;28;20817;-72
2021/12/15 11:19:58;;;;;;;15.93;9.20;;;;;;;;;;5075422;28;20799;-72
2021/12/15 11:22:32;;;;;;;15.63;8.80;;;;;;;;;;5050682;28;20455;-72
2021/12/15 11:24:59;;;;;;;17.13;9.77;;;;;;;;;;5074821;28;20815;-72
2021/12/15 11:27:26;;;;;;;14.50;8.43;;;;;;;;;;5074809;28;20448;-72
2021/12/15 11:29:55;;;;;;;12.90;8.43;;;;;;;;;;5074672;28;20515;-72
2021/12/15 11:32:41;;;;;;;12.53;8.70;;;;;;;;;;5075070;28;20447;-72
2021/12/15 11:35:09;;;;;;;16.63;9.23;;;;;;;;;;5074618;28;20471;-72
2021/12/15 11:37:47;;;;;;;16.33;8.87;;;;;;;;;;5074710;28;20452;-72
2021/12/15 11:40:15;;;;;;;20.90;11.10;;;;;;;;;;5074946;28;20497;-72
2021/12/15 11:42:43;;;;;;;15.33;9.73;;;;;;;;;;5074809;28;20592;-72
2021/12/15 11:45:14;;;;;;;15.33;8.53;;;;;;;;;;5074483;28;20470;-72
2021/12/15 11:47:41;;;;;;;16.03;9.73;;;;;;;;;;5074820;28;20466;-72
2021/12/15 11:50:10;;;;;;;21.83;10.43;;;;;;;;;;5074241;28;20488;-72
2021/12/15 11:52:42;;;;;;;19.37;10.33;;;;;;;;;;5074325;28;20459;-72
2021/12/15 11:55:21;;;;;;;17.93;9.07;;;;;;;;;;5074086;28;20456;-72
2021/12/15 11:57:48;;;;;;;17.53;9.43;;;;;;;;;;5074348;28;20448;-72
2021/12/15 12:00:20;;;;;;;18.87;10.90;;;;;;;;;;5074165;28;20454;-72
2021/12/15 12:02:48;;;;;;;18.13;9.97;;;;;;;;;;5074103;28;20432;-72
2021/12/15 12:05:19;;;;;;;13.03;8.50;;;;;;;;;;5074205;28;20452;-72
2021/12/15 12:07:47;;;;;;;7.47;5.87;;;;;;;;;;5074094;28;20436;-71
2021/12/15 12:10:19;;;;;;;13.97;8.20;;;;;;;;;;5074254;28;20990;-71
2021/12/15 12:12:51;;;;;;;13.60;8.93;;;;;;;;;;5074272;28;20974;-72
2021/12/15 12:15:22;;;;;;;12.60;7.00;;;;;;;;;;5074124;28;20909;-71
2021/12/15 12:17:51;;;;;;;9.17;6.20;;;;;;;;;;5074239;28;20432;-71
2021/12/15 12:20:19;;;;;;;9.40;6.50;;;;;;;;;;5073881;28;20455;-71
2021/12/15 12:22:47;;;;;;;12.60;8.03;;;;;;;;;;5073792;28;20455;-71
2021/12/15 12:25:16;;;;;;;11.57;7.30;;;;;;;;;;5073678;28;20455;-71
2021/12/15 12:27:44;;;;;;;11.70;6.93;;;;;;;;;;5074039;28;20444;-71
2021/12/15 12:30:13;;;;;;;12.20;7.03;;;;;;;;;;5074000;28;20518;-71
2021/12/15 12:32:42;;;;;;;9.90;5.63;;;;;;;;;;5073704;28;20447;-71
2021/12/15 12:35:10;;;;;;;9.63;6.40;;;;;;;;;;5073551;28;20451;-72
2021/12/15 12:37:37;;;;;;;10.63;6.67;;;;;;;;;;5073616;28;20937;-72
2021/12/15 12:40:16;;;;;;;12.90;8.07;;;;;;;;;;5073850;28;20440;-72
2021/12/15 12:42:44;;;;;;;13.03;8.53;;;;;;;;;;5073488;28;20460;-72
2021/12/15 12:45:16;;;;;;;11.63;7.70;;;;;;;;;;5073604;28;20829;-72
2021/12/15 12:48:01;;;;;;;8.43;5.70;;;;;;;;;;5073526;28;20451;-72
2021/12/15 12:59:25;;;;;;;12.53;8.57;;;;;;;;;;5073367;28;20457;-72
2021/12/15 13:01:52;;;;;;;13.20;7.90;;;;;;;;;;5073345;28;20455;-72
2021/12/15 13:04:20;;;;;;;14.63;8.93;;;;;;;;;;5073292;28;20448;-71
2021/12/15 13:06:49;;;;;;;12.83;7.10;;;;;;;;;;5072418;28;20451;-71
2021/12/15 13:09:19;;;;;;;11.60;8.10;;;;;;;;;;5073125;28;20483;-73
2021/12/15 13:11:50;;;;;;;13.37;8.63;;;;;;;;;;5072998;28;20456;-72
2021/12/15 13:14:18;;;;;;;12.00;8.27;;;;;;;;;;5073062;28;20452;-72
2021/12/15 13:16:49;;;;;;;14.40;8.63;;;;;;;;;;5072898;28;20448;-72
2021/12/15 13:19:18;;;;;;;53.40;21.13;;;;;;;;;;5073010;28;20455;-73
2021/12/15 13:22:18;;;;;;;13.83;8.00;;;;;;;;;;5073040;28;20443;-72
2021/12/15 13:30:28;;;;;;;14.80;9.10;;;;;;;;;;5072849;28;20483;-72
2021/12/15 13:33:02;;;;;;;14.37;7.93;;;;;;;;;;5072944;28;20462;-72
2021/12/15 13:35:36;;;;;;;12.90;7.50;;;;;;;;;;5072554;28;20493;-72
2021/12/15 13:38:04;;;;;;;11.10;6.57;;;;;;;;;;5072864;28;20458;-72
2021/12/15 13:40:53;;;;;;;11.30;7.07;;;;;;;;;;5072580;28;20483;-72
2021/12/15 13:43:33;;;;;;;10.80;7.27;;;;;;;;;;5055991;28;20932;-72
2021/12/15 13:46:00;;;;;;;13.70;7.43;;;;;;;;;;5072812;28;20849;-72
2021/12/15 13:48:42;;;;;;;11.03;7.30;;;;;;;;;;5072561;28;20455;-73
2021/12/15 13:51:10;;;;;;;9.50;7.53;;;;;;;;;;5072700;28;20443;-73
2021/12/15 13:53:38;;;;;;;12.53;7.33;;;;;;;;;;5072614;28;20941;-73
2021/12/15 13:56:05;;;;;;;9.50;6.30;;;;;;;;;;5072682;28;20470;-72
2021/12/15 13:58:33;;;;;;;13.33;7.17;;;;;;;;;;5072501;28;20455;-72
2021/12/15 14:01:01;;;;;;;9.83;7.77;;;;;;;;;;5072964;28;20463;-72
2021/12/15 14:03:32;;;;;;;12.13;7.53;;;;;;;;;;5072504;28;20452;-72
2021/12/15 14:06:08;;;;;;;12.67;7.60;;;;;;;;;;5078051;28;20517;-72
2021/12/15 14:08:38;;;;;;;10.13;7.27;;;;;;;;;;5092970;28;20898;-72
2021/12/15 14:11:09;;;;;;;9.70;6.40;;;;;;;;;;5083895;28;20461;-72
2021/12/15 14:13:54;;;;;;;11.27;7.20;;;;;;;;;;5072494;28;20793;-73
2021/12/15 14:16:32;;;;;;;10.80;6.53;;;;;;;;;;5072392;28;20823;-73
2021/12/15 14:19:00;;;;;;;9.70;8.10;;;;;;;;;;5074593;28;20443;-72
2021/12/15 14:21:28;;;;;;;10.30;7.20;;;;;;;;;;5075898;28;20455;-73
2021/12/15 14:23:55;;;;;;;16.70;8.77;;;;;;;;;;5075791;28;20447;-73
2021/12/15 14:26:26;;;;;;;13.20;7.63;;;;;;;;;;5075942;28;20436;-73
2021/12/15 14:28:55;;;;;;;12.10;8.73;;;;;;;;;;5075818;28;20543;-73
2021/12/15 14:31:24;;;;;;;14.00;8.63;;;;;;;;;;5075716;28;20539;-73
2021/12/15 14:33:52;;;;;;;10.33;7.43;;;;;;;;;;5075777;28;20817;-73
2021/12/15 14:36:21;;;;;;;12.27;8.33;;;;;;;;;;5075829;28;20487;-73
2021/12/15 14:38:49;;;;;;;15.47;8.23;;;;;;;;;;5075816;28;20459;-73
2021/12/15 14:41:18;;;;;;;15.60;10.17;;;;;;;;;;5075780;28;20447;-73
2021/12/15 14:43:50;;;;;;;19.13;11.53;;;;;;;;;;5087367;28;20486;-73
2021/12/15 14:46:19;;;;;;;22.50;12.03;;;;;;;;;;5095985;28;20469;-73
2021/12/15 14:48:46;;;;;;;16.23;10.03;;;;;;;;;;5095767;28;20455;-73
2021/12/15 14:51:22;;;;;;;17.83;10.40;;;;;;;;;;5095872;28;20443;-73
2021/12/15 14:53:49;;;;;;;22.77;12.73;;;;;;;;;;5095844;28;20802;-73
2021/12/15 14:56:16;;;;;;;19.07;11.77;;;;;;;;;;5095647;28;20450;-72
2021/12/15 14:58:43;;;;;;;26.27;18.37;;;;;;;;;;5095608;28;20935;-73
2021/12/15 15:01:15;;;;;;;21.70;11.73;;;;;;;;;;5095611;28;20446;-72
2021/12/15 15:03:57;;;;;;;24.67;13.53;;;;;;;;;;5095922;28;20819;-72
2021/12/15 15:06:26;;;;;;;30.20;16.13;;;;;;;;;;5096009;28;20821;-71
2021/12/15 15:08:53;;;;;;;25.20;14.90;;;;;;;;;;5095504;28;20504;-71
2021/12/15 15:11:24;;;;;;;21.63;14.30;;;;;;;;;;5095504;28;20447;-71
2021/12/15 15:13:52;;;;;;;20.07;11.43;;;;;;;;;;5095796;28;20431;-71
2021/12/15 15:16:24;;;;;;;19.47;12.00;;;;;;;;;;5095495;28;20447;-71
2021/12/15 15:18:51;;;;;;;22.23;13.63;;;;;;;;;;5095333;28;20433;-72
2021/12/15 15:21:19;;;;;;;26.40;14.50;;;;;;;;;;5095644;28;20450;-72
2021/12/15 15:23:47;;;;;;;21.60;13.90;;;;;;;;;;5095590;28;20446;-70
2021/12/15 15:26:15;;;;;;;21.30;12.53;;;;;;;;;;5095662;28;20809;-70
2021/12/15 15:28:43;;;;;;;20.73;12.00;;;;;;;;;;5094869;28;20461;-71
2021/12/15 15:31:12;;;;;;;23.17;13.20;;;;;;;;;;5094217;28;20848;-71
2021/12/15 15:33:41;;;;;;;24.17;13.17;;;;;;;;;;5094728;28;20806;-71
2021/12/15 15:36:10;;;;;;;24.97;12.80;;;;;;;;;;5095030;28;20450;-71
2021/12/15 15:38:39;;;;;;;45.37;28.10;;;;;;;;;;5094787;28;20447;-71
2021/12/15 15:41:08;;;;;;;27.67;14.70;;;;;;;;;;5094851;28;20454;-71
2021/12/15 15:43:38;;;;;;;24.17;15.43;;;;;;;;;;5094652;28;20450;-71
2021/12/15 15:46:07;;;;;;;31.67;16.13;;;;;;;;;;5094539;28;20466;-71